• Join FlightAware (Why Join?)
  • Login
  • US Flag 
12:40PM EDT


 

Airport Tracker/Info


-or-


 

Live Flight TrackerFlight Track Log ✈ EJA982 ✈ 24-Apr-2013 ✈ KBTV - KILG

Flight Track Log - Related Links

Times and Time Zones

All times are in EDT time to prevent confusion due to time zone crossing. See the EJA982 flight status page for this flight to view local times or setup timezone preferences in your user account.

Time Position Orientation Groundspeed Altitude Reporting Facility
EDT Latitude Longitude Course Direction KTS MPH feet Rate Location/Type
12:59PM 44.3758 -73.1372 197° South 263 303 6,000  Level Boston Center
01:00PM 44.3092 -73.1625 195° South 276 318 9,700 3,060 Climbing Boston Center
01:01PM 44.2275 -73.1961 196° South 287 330 12,200 2,400 Climbing Boston Center
01:02PM 44.1356 -73.2356 197° South 328 377 14,600 2,640 Climbing Boston Center
01:03PM 44.0375 -73.2775 197° South 355 409 17,500 2,640 Climbing Boston Center
01:04PM 43.7770 -73.4090 197° South  Level FlightAware Approximate
01:04PM 43.9372 -73.3164 196° South 369 425 19,900  Level Boston Center
01:05PM 43.8367 -73.3611 198° South 381 438 22,200 2,100 Climbing Boston Center
01:06PM 43.7300 -73.4056 197° South 386 444 24,100 1,920 Climbing Boston Center
01:07PM 43.6192 -73.4494 196° South 405 466 26,100 1,740 Climbing Boston Center
01:08PM 43.5003 -73.4619 184° South 423 487 27,600 900 Climbing Boston Center
01:09PM 43.3739 -73.4028 161° South 452 520 28,000 180 Climbing Boston Center
01:10PM 43.2450 -73.3408 161° South 469 540 28,000  Level Boston Center
01:11PM 43.1122 -73.2792 161° South 482 555 28,000  Level Boston Center
01:12PM 42.9792 -73.2206 162° South 502 578 28,000  Level Boston Center
01:13PM 42.8461 -73.1594 161° South 502 578 28,000  Level Boston Center
01:14PM 42.7131 -73.1014 162° South 502 578 28,000  Level Boston Center
01:16PM 42.5351 -73.0253 163° South  Level FlightAware Approximate
01:16PM 42.4283 -72.9661 163° South 513 590 28,000  Level Boston Center
01:17PM 42.2889 -72.9117 164° South 513 590 28,000  Level Boston Center
01:18PM 42.1536 -72.8517 162° South 513 590 28,000  Level Boston Center
01:19PM 42.0228 -72.7867 160° South 513 590 28,000  Level Boston Center
01:20PM 41.8853 -72.7300 163° South 513 590 28,000  Level Boston Center
01:21PM 41.7478 -72.6739 163° South 519 597 28,000  Level Boston Center
01:22PM 41.6103 -72.6261 165° South 514 592 28,000  Level Boston Center
01:23PM 41.4708 -72.6008 172° South 509 586 28,000  Level Boston Center
01:24PM 41.3292 -72.5811 174° South 509 586 28,000  Level Boston Center
01:25PM 41.1978 -72.6331 197° South 495 570 28,000  Level Boston Center
01:26PM 41.0767 -72.7208 209° Southwest 482 555 28,000 -120 Level Boston Center
01:27PM 40.9556 -72.8056 208° Southwest 489 563 27,800 -1,200 Descending Boston Center
01:29PM 40.7225 -72.9728 209° Southwest 475 547 24,400 -1,800 Descending New York Center
01:30PM 40.6106 -73.0511 208° Southwest 468 539 22,500 -1,860 Descending New York Center
01:31PM 40.5028 -73.1294 209° Southwest 463 533 20,800 -1,320 Descending New York Center
01:32PM 40.3950 -73.2019 207° Southwest 457 526 20,000 -420 Descending New York Center
01:33PM 40.2892 -73.2769 208° Southwest 445 512 20,000  Level New York Center
01:34PM 40.1836 -73.3492 208° Southwest 439 505 20,000  Level New York Center
01:35PM 40.0778 -73.4239 208° Southwest 439 505 20,000  Level New York Center
01:36PM 39.9717 -73.4983 208° Southwest 439 505 20,000  Level New York Center
01:37PM 39.8736 -73.5892 215° Southwest 439 505 20,000 -660 Level New York Center
01:38PM 39.8000 -73.7053 230° Southwest 431 496 18,800 -1,380 Descending New York Center
01:39PM 39.7239 -73.8314 232° Southwest 426 490 17,300 -1,560 Descending New York Center
01:40PM 39.6500 -73.9442 230° Southwest 417 480 15,700 -1,500 Descending New York Center
01:41PM 39.5664 -74.0733 230° Southwest 405 466 14,000 -1,020 Descending Washington Center
01:42PM 39.5339 -74.1300 233° Southwest 333 383 13,900  Descending FAA TRACON SMA TRACON (SMA)
01:42PM 39.5236 -74.1653 249° West 347 399 14,000  Climbing FAA TRACON SMA TRACON (SMA)
01:42PM 39.5250 -74.2067 273° West 316 364 13,900 -180 Descending FAA TRACON SMA TRACON (SMA)
01:43PM 39.5256 -74.2411 271° West 292 336 13,900 -900 Level FAA TRACON SMA TRACON (SMA)
01:43PM 39.5256 -74.2789 270° West 276 318 13,300 -2,100 Descending FAA TRACON SMA TRACON (SMA)
01:43PM 39.5261 -74.3083 271° West 272 313 12,500 -2,160 Descending FAA TRACON SMA TRACON (SMA)
01:44PM 39.5272 -74.3378 273° West 268 308 11,900 -2,160 Descending FAA TRACON SMA TRACON (SMA)
01:44PM 39.5272 -74.3722 270° West 266 306 11,100 -2,280 Descending FAA TRACON SMA TRACON (SMA)
01:44PM 39.5283 -74.4047 273° West 268 308 10,400 -2,100 Descending FAA TRACON SMA TRACON (SMA)
01:45PM 39.5292 -74.4339 272° West 265 305 9,700 -2,100 Descending FAA TRACON SMA TRACON (SMA)
01:45PM 39.5317 -74.4683 275° West 266 306 9,000 -1,200 Descending FAA TRACON SMA TRACON (SMA)
01:45PM 39.5300 -74.4986 266° West 264 304 8,900 -180 Descending FAA TRACON SMA TRACON (SMA)
01:46PM 39.5303 -74.5286 271° West 261 300 8,900  Level FAA TRACON SMA TRACON (SMA)
01:46PM 39.5308 -74.5644 271° West 261 300 8,900 120 Level FAA TRACON SMA TRACON (SMA)
01:46PM 39.5314 -74.5939 271° West 262 302 9,000 120 Climbing FAA TRACON SMA TRACON (SMA)
01:47PM 39.5317 -74.6231 271° West 262 302 9,000 -180 Level FAA TRACON SMA TRACON (SMA)
01:47PM 39.5322 -74.6522 271° West 262 302 8,900 -180 Descending FAA TRACON SMA TRACON (SMA)
01:47PM 39.5331 -74.6861 272° West 261 300 8,900  Level FAA TRACON SMA TRACON (SMA)
01:48PM 39.5344 -74.7172 273° West 261 300 8,900 120 Level FAA TRACON SMA TRACON (SMA)
01:48PM 39.5342 -74.7467 269° West 262 302 9,000 120 Climbing FAA TRACON SMA TRACON (SMA)
01:48PM 39.5347 -74.7825 271° West 261 300 9,000  Level FAA TRACON SMA TRACON (SMA)
01:49PM 39.5353 -74.8117 271° West 262 302 9,000 -180 Level FAA TRACON SMA TRACON (SMA)
01:49PM 39.5356 -74.8408 271° West 261 300 8,900 -1,080 Descending FAA TRACON SMA TRACON (SMA)
01:49PM 39.5369 -74.8756 273° West 258 297 8,300 -1,800 Descending FAA TRACON SMA TRACON (SMA)
01:50PM 39.5372 -74.9042 271° West 256 295 7,700 -1,800 Descending FAA TRACON SMA TRACON (SMA)
01:50PM 39.5372 -74.9336 270° West 258 297 7,100 -1,680 Descending FAA TRACON SMA TRACON (SMA)
01:50PM 39.5383 -74.9694 272° West 259 298 6,600 -780 Descending FAA TRACON SMA TRACON (SMA)
01:51PM 39.5447 -74.9992 286° West 274 315 6,600 -300 Level FAA TRACON SMA TRACON (SMA)
01:51PM 39.5508 -75.0250 287° West 267 307 6,400 -900 Descending FAA TRACON SMA TRACON (SMA)
01:51PM 39.5589 -75.0619 286° West 266 306 6,000 -600 Descending FAA TRACON SMA TRACON (SMA)
01:52PM 39.5647 -75.0869 287° West 264 304 6,000 -180 Level FAA TRACON SMA TRACON (SMA)
01:52PM 39.5714 -75.1181 286° West 263 303 5,900 -1,260 Descending FAA TRACON SMA TRACON (SMA)
01:52PM 39.5789 -75.1519 286° West 253 291 5,200 -1,500 Descending FAA TRACON SMA TRACON (SMA)
01:53PM 39.5833 -75.1761 283° West 251 289 4,900 -900 Descending FAA TRACON SMA TRACON (SMA)
01:53PM 39.5900 -75.2025 288° West 242 278 4,600 -1,080 Descending FAA TRACON SMA TRACON (SMA)
01:53PM 39.5969 -75.2336 286° West 227 261 4,200 -1,080 Descending FAA TRACON SMA TRACON (SMA)
01:54PM 39.6019 -75.2533 288° West 220 253 3,900 -780 Descending FAA TRACON SMA TRACON (SMA)
01:54PM 39.6067 -75.2792 283° West 210 242 3,700 -900 Descending FAA TRACON SMA TRACON (SMA)
01:54PM 39.6125 -75.3064 286° West 205 236 3,300 -1,080 Descending FAA TRACON SMA TRACON (SMA)
01:55PM 39.6172 -75.3278 286° West 204 235 3,000 -300 Descending FAA TRACON SMA TRACON (SMA)
01:55PM 39.6281 -75.3747 287° West 201 231 3,000  Level FAA TRACON SMA TRACON (SMA)
01:56PM 39.6331 -75.3981 286° West 206 237 3,000  Level FAA TRACON SMA TRACON (SMA)
01:56PM 39.6375 -75.4200 285° West 203 234 3,000 -300 Level FAA TRACON SMA TRACON (SMA)
01:56PM 39.6419 -75.4444 283° West 197 227 2,800 -780 Descending FAA TRACON SMA TRACON (SMA)
01:57PM 39.6469 -75.4658 287° West 194 223 2,500 -960 Descending FAA TRACON SMA TRACON (SMA)
01:57PM 39.6547 -75.4850 298° West 189 217 2,200 -960 Descending FAA TRACON SMA TRACON (SMA)